sensor_id;sensor_type;location;lat;lon;timestamp;temperature;humidity
9820;DHT22;4949;48.482;9.206;2022-12-19T00:03:20;-0.80;79.00
9820;DHT22;4949;48.482;9.206;2022-12-19T00:08:25;-0.80;78.70
9820;DHT22;4949;48.482;9.206;2022-12-19T00:13:27;-0.80;79.30
9820;DHT22;4949;48.482;9.206;2022-12-19T00:18:32;-0.80;79.30
9820;DHT22;4949;48.482;9.206;2022-12-19T00:23:38;-0.70;79.80
9820;DHT22;4949;48.482;9.206;2022-12-19T00:28:42;-0.60;79.20
9820;DHT22;4949;48.482;9.206;2022-12-19T00:33:48;-0.50;78.20
9820;DHT22;4949;48.482;9.206;2022-12-19T00:38:50;-0.50;79.20
9820;DHT22;4949;48.482;9.206;2022-12-19T00:48:53;-0.40;79.50
9820;DHT22;4949;48.482;9.206;2022-12-19T00:53:56;-0.40;79.90
9820;DHT22;4949;48.482;9.206;2022-12-19T00:58:59;-0.40;79.80
9820;DHT22;4949;48.482;9.206;2022-12-19T01:04:01;-0.40;79.90
9820;DHT22;4949;48.482;9.206;2022-12-19T01:09:02;-0.40;79.60
9820;DHT22;4949;48.482;9.206;2022-12-19T01:14:06;-0.30;79.60
9820;DHT22;4949;48.482;9.206;2022-12-19T01:19:09;-0.40;79.90
9820;DHT22;4949;48.482;9.206;2022-12-19T01:24:10;-0.40;80.30
9820;DHT22;4949;48.482;9.206;2022-12-19T01:29:14;-0.40;80.10
9820;DHT22;4949;48.482;9.206;2022-12-19T01:34:15;-0.30;80.00
9820;DHT22;4949;48.482;9.206;2022-12-19T01:39:16;-0.30;80.80
9820;DHT22;4949;48.482;9.206;2022-12-19T01:44:16;-0.30;80.10
9820;DHT22;4949;48.482;9.206;2022-12-19T01:49:34;-0.10;80.30
9820;DHT22;4949;48.482;9.206;2022-12-19T01:54:38;0.00;79.20
9820;DHT22;4949;48.482;9.206;2022-12-19T01:59:43;0.00;79.20
9820;DHT22;4949;48.482;9.206;2022-12-19T02:04:47;0.10;78.90
9820;DHT22;4949;48.482;9.206;2022-12-19T02:09:53;0.20;79.00
9820;DHT22;4949;48.482;9.206;2022-12-19T02:14:55;0.20;79.30
9820;DHT22;4949;48.482;9.206;2022-12-19T02:20:08;0.20;79.00
9820;DHT22;4949;48.482;9.206;2022-12-19T02:35:52;0.30;79.70
9820;DHT22;4949;48.482;9.206;2022-12-19T02:41:07;0.30;79.80
9820;DHT22;4949;48.482;9.206;2022-12-19T02:46:14;0.20;80.20
9820;DHT22;4949;48.482;9.206;2022-12-19T02:51:18;0.30;79.90
9820;DHT22;4949;48.482;9.206;2022-12-19T03:07:02;0.30;80.10
9820;DHT22;4949;48.482;9.206;2022-12-19T03:12:15;0.30;79.60
9820;DHT22;4949;48.482;9.206;2022-12-19T03:17:21;0.20;80.60
9820;DHT22;4949;48.482;9.206;2022-12-19T03:22:21;0.10;81.00
9820;DHT22;4949;48.482;9.206;2022-12-19T03:27:28;0.10;80.90
9820;DHT22;4949;48.482;9.206;2022-12-19T03:32:31;0.10;80.80
9820;DHT22;4949;48.482;9.206;2022-12-19T03:37:36;0.10;81.00
9820;DHT22;4949;48.482;9.206;2022-12-19T03:42:43;0.10;81.20
9820;DHT22;4949;48.482;9.206;2022-12-19T03:48:11;0.20;81.40
9820;DHT22;4949;48.482;9.206;2022-12-19T03:58:51;0.30;81.90
9820;DHT22;4949;48.482;9.206;2022-12-19T04:03:59;0.20;82.70
9820;DHT22;4949;48.482;9.206;2022-12-19T04:09:02;0.30;82.80
9820;DHT22;4949;48.482;9.206;2022-12-19T04:14:07;0.40;83.00
9820;DHT22;4949;48.482;9.206;2022-12-19T04:19:19;0.40;83.20
9820;DHT22;4949;48.482;9.206;2022-12-19T04:24:32;0.50;83.00
9820;DHT22;4949;48.482;9.206;2022-12-19T04:29:35;0.80;82.70
9820;DHT22;4949;48.482;9.206;2022-12-19T04:34:39;0.60;82.70
9820;DHT22;4949;48.482;9.206;2022-12-19T04:39:40;0.70;82.40
9820;DHT22;4949;48.482;9.206;2022-12-19T04:44:41;0.80;82.70
9820;DHT22;4949;48.482;9.206;2022-12-19T04:49:44;0.80;83.20
9820;DHT22;4949;48.482;9.206;2022-12-19T04:54:47;0.80;83.70
9820;DHT22;4949;48.482;9.206;2022-12-19T04:59:50;0.80;84.40
9820;DHT22;4949;48.482;9.206;2022-12-19T05:04:51;0.80;85.40
9820;DHT22;4949;48.482;9.206;2022-12-19T05:09:51;1.10;85.80
9820;DHT22;4949;48.482;9.206;2022-12-19T05:14:54;0.90;84.90
9820;DHT22;4949;48.482;9.206;2022-12-19T05:19:57;1.00;85.80
9820;DHT22;4949;48.482;9.206;2022-12-19T05:24:58;0.90;86.60
9820;DHT22;4949;48.482;9.206;2022-12-19T05:29:59;1.00;87.70
9820;DHT22;4949;48.482;9.206;2022-12-19T05:35:00;1.00;87.70
9820;DHT22;4949;48.482;9.206;2022-12-19T05:40:01;0.90;87.90
9820;DHT22;4949;48.482;9.206;2022-12-19T05:45:04;1.00;88.20
9820;DHT22;4949;48.482;9.206;2022-12-19T05:50:06;1.00;88.10
9820;DHT22;4949;48.482;9.206;2022-12-19T05:55:10;0.90;88.20
9820;DHT22;4949;48.482;9.206;2022-12-19T06:00:11;1.00;88.30
9820;DHT22;4949;48.482;9.206;2022-12-19T06:05:15;1.00;87.50
9820;DHT22;4949;48.482;9.206;2022-12-19T06:10:19;1.10;87.00
9820;DHT22;4949;48.482;9.206;2022-12-19T06:15:22;1.20;87.60
9820;DHT22;4949;48.482;9.206;2022-12-19T06:20:25;1.10;86.10
9820;DHT22;4949;48.482;9.206;2022-12-19T06:25:26;1.30;86.00
9820;DHT22;4949;48.482;9.206;2022-12-19T06:30:27;1.20;85.80
9820;DHT22;4949;48.482;9.206;2022-12-19T06:35:30;1.30;86.20
9820;DHT22;4949;48.482;9.206;2022-12-19T06:40:31;1.40;87.10
9820;DHT22;4949;48.482;9.206;2022-12-19T06:45:52;1.30;86.50
9820;DHT22;4949;48.482;9.206;2022-12-19T06:50:55;1.30;86.60
9820;DHT22;4949;48.482;9.206;2022-12-19T06:55:59;1.40;86.30
9820;DHT22;4949;48.482;9.206;2022-12-19T07:01:03;1.40;87.20
9820;DHT22;4949;48.482;9.206;2022-12-19T07:06:04;1.40;86.50
9820;DHT22;4949;48.482;9.206;2022-12-19T07:11:06;1.40;87.40
9820;DHT22;4949;48.482;9.206;2022-12-19T07:16:06;1.50;87.30
9820;DHT22;4949;48.482;9.206;2022-12-19T07:21:10;1.60;87.30
9820;DHT22;4949;48.482;9.206;2022-12-19T07:26:14;1.60;86.90
9820;DHT22;4949;48.482;9.206;2022-12-19T07:31:17;1.70;87.00
9820;DHT22;4949;48.482;9.206;2022-12-19T07:36:20;1.70;86.50
9820;DHT22;4949;48.482;9.206;2022-12-19T07:41:23;1.80;86.40
9820;DHT22;4949;48.482;9.206;2022-12-19T07:46:28;1.90;86.20
9820;DHT22;4949;48.482;9.206;2022-12-19T07:51:29;1.80;86.60
9820;DHT22;4949;48.482;9.206;2022-12-19T07:56:30;1.90;86.40
9820;DHT22;4949;48.482;9.206;2022-12-19T08:01:33;1.90;85.90
9820;DHT22;4949;48.482;9.206;2022-12-19T08:06:36;2.00;85.80
9820;DHT22;4949;48.482;9.206;2022-12-19T08:11:39;2.00;85.80
9820;DHT22;4949;48.482;9.206;2022-12-19T08:16:40;2.00;86.00
9820;DHT22;4949;48.482;9.206;2022-12-19T08:21:41;2.10;85.90
9820;DHT22;4949;48.482;9.206;2022-12-19T08:26:42;2.00;85.90
9820;DHT22;4949;48.482;9.206;2022-12-19T08:31:42;2.10;86.20
9820;DHT22;4949;48.482;9.206;2022-12-19T08:36:43;2.10;86.30
9820;DHT22;4949;48.482;9.206;2022-12-19T08:41:46;2.20;85.10
9820;DHT22;4949;48.482;9.206;2022-12-19T08:46:47;2.30;84.50
9820;DHT22;4949;48.482;9.206;2022-12-19T08:51:48;2.30;84.70
9820;DHT22;4949;48.482;9.206;2022-12-19T08:56:54;2.30;85.10
9820;DHT22;4949;48.482;9.206;2022-12-19T09:01:55;2.40;85.20
9820;DHT22;4949;48.482;9.206;2022-12-19T09:07:00;2.40;84.60
9820;DHT22;4949;48.482;9.206;2022-12-19T09:12:01;2.50;84.80
9820;DHT22;4949;48.482;9.206;2022-12-19T09:17:04;2.50;84.80
9820;DHT22;4949;48.482;9.206;2022-12-19T09:22:05;2.70;83.90
9820;DHT22;4949;48.482;9.206;2022-12-19T09:27:05;2.80;84.30
9820;DHT22;4949;48.482;9.206;2022-12-19T09:32:08;2.80;83.50
9820;DHT22;4949;48.482;9.206;2022-12-19T09:37:10;2.90;83.60
9820;DHT22;4949;48.482;9.206;2022-12-19T09:47:55;3.30;83.70
9820;DHT22;4949;48.482;9.206;2022-12-19T09:53:03;3.10;83.40
9820;DHT22;4949;48.482;9.206;2022-12-19T09:58:26;3.20;83.40
9820;DHT22;4949;48.482;9.206;2022-12-19T10:08:46;3.20;84.10
9820;DHT22;4949;48.482;9.206;2022-12-19T10:15:00;3.20;84.40
9820;DHT22;4949;48.482;9.206;2022-12-19T10:20:32;3.40;84.30
9820;DHT22;4949;48.482;9.206;2022-12-19T10:36:23;3.30;84.60
9820;DHT22;4949;48.482;9.206;2022-12-19T10:41:27;3.40;83.80
9820;DHT22;4949;48.482;9.206;2022-12-19T10:46:36;3.40;84.20
9820;DHT22;4949;48.482;9.206;2022-12-19T10:52:01;3.40;84.50
9820;DHT22;4949;48.482;9.206;2022-12-19T10:57:26;3.50;84.40
9820;DHT22;4949;48.482;9.206;2022-12-19T11:02:33;3.70;84.60
9820;DHT22;4949;48.482;9.206;2022-12-19T11:07:37;4.00;83.80
9820;DHT22;4949;48.482;9.206;2022-12-19T11:12:51;4.30;82.90
9820;DHT22;4949;48.482;9.206;2022-12-19T11:18:05;4.70;81.40
9820;DHT22;4949;48.482;9.206;2022-12-19T11:23:13;5.10;80.40
9820;DHT22;4949;48.482;9.206;2022-12-19T11:28:19;5.20;79.60
9820;DHT22;4949;48.482;9.206;2022-12-19T11:33:23;5.40;79.30
9820;DHT22;4949;48.482;9.206;2022-12-19T11:38:44;5.50;78.60
9820;DHT22;4949;48.482;9.206;2022-12-19T11:43:58;5.90;78.20
9820;DHT22;4949;48.482;9.206;2022-12-19T11:55:40;6.50;75.80
9820;DHT22;4949;48.482;9.206;2022-12-19T12:00:23;6.70;75.50
9820;DHT22;4949;48.482;9.206;2022-12-19T12:10:58;6.80;74.40
9820;DHT22;4949;48.482;9.206;2022-12-19T12:16:09;7.00;74.20
9820;DHT22;4949;48.482;9.206;2022-12-19T12:21:24;7.00;74.20
9820;DHT22;4949;48.482;9.206;2022-12-19T12:26:38;6.80;74.30
9820;DHT22;4949;48.482;9.206;2022-12-19T12:48:36;6.50;75.60
9820;DHT22;4949;48.482;9.206;2022-12-19T12:53:45;6.80;75.10
9820;DHT22;4949;48.482;9.206;2022-12-19T13:09:26;6.90;74.50
9820;DHT22;4949;48.482;9.206;2022-12-19T13:19:51;6.90;76.20
9820;DHT22;4949;48.482;9.206;2022-12-19T13:24:59;6.60;76.10
9820;DHT22;4949;48.482;9.206;2022-12-19T13:40:54;6.50;77.40
9820;DHT22;4949;48.482;9.206;2022-12-19T13:51:20;6.40;77.50
9820;DHT22;4949;48.482;9.206;2022-12-19T13:56:21;6.30;78.00
9820;DHT22;4949;48.482;9.206;2022-12-19T14:01:30;6.30;78.70
9820;DHT22;4949;48.482;9.206;2022-12-19T14:06:42;6.40;78.90
9820;DHT22;4949;48.482;9.206;2022-12-19T14:11:45;6.20;78.90
9820;DHT22;4949;48.482;9.206;2022-12-19T14:16:46;6.20;79.60
9820;DHT22;4949;48.482;9.206;2022-12-19T14:21:47;6.10;79.50
9820;DHT22;4949;48.482;9.206;2022-12-19T14:26:54;6.00;80.30
9820;DHT22;4949;48.482;9.206;2022-12-19T14:31:56;6.00;80.70
9820;DHT22;4949;48.482;9.206;2022-12-19T14:37:00;5.90;80.40
9820;DHT22;4949;48.482;9.206;2022-12-19T14:42:06;6.00;81.60
9820;DHT22;4949;48.482;9.206;2022-12-19T14:47:40;5.70;81.70
9820;DHT22;4949;48.482;9.206;2022-12-19T14:52:42;5.70;81.60
9820;DHT22;4949;48.482;9.206;2022-12-19T14:57:49;5.70;81.40
9820;DHT22;4949;48.482;9.206;2022-12-19T15:02:51;5.60;82.50
9820;DHT22;4949;48.482;9.206;2022-12-19T15:07:55;5.50;83.30
9820;DHT22;4949;48.482;9.206;2022-12-19T15:13:02;5.60;83.00
9820;DHT22;4949;48.482;9.206;2022-12-19T15:23:32;5.40;81.50
9820;DHT22;4949;48.482;9.206;2022-12-19T15:28:42;5.70;77.40
9820;DHT22;4949;48.482;9.206;2022-12-19T15:33:45;5.60;76.70
9820;DHT22;4949;48.482;9.206;2022-12-19T15:38:46;5.70;76.40
9820;DHT22;4949;48.482;9.206;2022-12-19T15:43:47;5.60;76.90
9820;DHT22;4949;48.482;9.206;2022-12-19T15:48:50;5.80;75.80
9820;DHT22;4949;48.482;9.206;2022-12-19T15:53:53;5.80;75.10
9820;DHT22;4949;48.482;9.206;2022-12-19T15:58:56;5.80;75.20
9820;DHT22;4949;48.482;9.206;2022-12-19T16:03:58;5.80;75.70
9820;DHT22;4949;48.482;9.206;2022-12-19T16:09:00;5.60;77.00
9820;DHT22;4949;48.482;9.206;2022-12-19T16:14:00;5.50;77.20
9820;DHT22;4949;48.482;9.206;2022-12-19T16:19:27;5.40;77.20
9820;DHT22;4949;48.482;9.206;2022-12-19T16:24:29;5.50;77.50
9820;DHT22;4949;48.482;9.206;2022-12-19T16:29:30;5.30;77.90
9820;DHT22;4949;48.482;9.206;2022-12-19T16:34:30;5.30;78.00
9820;DHT22;4949;48.482;9.206;2022-12-19T16:39:31;5.40;77.50
9820;DHT22;4949;48.482;9.206;2022-12-19T16:44:33;5.60;76.10
9820;DHT22;4949;48.482;9.206;2022-12-19T16:49:35;5.60;75.60
9820;DHT22;4949;48.482;9.206;2022-12-19T16:54:36;5.50;76.10
9820;DHT22;4949;48.482;9.206;2022-12-19T16:59:38;5.30;77.40
9820;DHT22;4949;48.482;9.206;2022-12-19T17:04:41;5.40;77.20
9820;DHT22;4949;48.482;9.206;2022-12-19T17:09:42;5.40;76.60
9820;DHT22;4949;48.482;9.206;2022-12-19T17:14:43;5.20;77.70
9820;DHT22;4949;48.482;9.206;2022-12-19T17:19:44;5.20;77.70
9820;DHT22;4949;48.482;9.206;2022-12-19T17:24:48;5.20;77.50
9820;DHT22;4949;48.482;9.206;2022-12-19T17:29:51;5.10;78.10
9820;DHT22;4949;48.482;9.206;2022-12-19T17:34:52;5.00;78.00
9820;DHT22;4949;48.482;9.206;2022-12-19T17:39:55;4.90;78.90
9820;DHT22;4949;48.482;9.206;2022-12-19T17:44:58;5.00;78.70
9820;DHT22;4949;48.482;9.206;2022-12-19T17:50:01;4.90;79.00
9820;DHT22;4949;48.482;9.206;2022-12-19T17:55:17;4.90;79.50
9820;DHT22;4949;48.482;9.206;2022-12-19T18:00:24;4.80;78.90
9820;DHT22;4949;48.482;9.206;2022-12-19T18:05:30;4.60;80.30
9820;DHT22;4949;48.482;9.206;2022-12-19T18:10:32;4.50;81.00
9820;DHT22;4949;48.482;9.206;2022-12-19T18:15:33;4.50;81.00
9820;DHT22;4949;48.482;9.206;2022-12-19T18:20:34;4.30;81.50
9820;DHT22;4949;48.482;9.206;2022-12-19T18:25:37;4.20;81.70
9820;DHT22;4949;48.482;9.206;2022-12-19T18:30:39;4.20;81.60
9820;DHT22;4949;48.482;9.206;2022-12-19T18:35:45;4.30;82.00
9820;DHT22;4949;48.482;9.206;2022-12-19T18:40:48;4.10;82.00
9820;DHT22;4949;48.482;9.206;2022-12-19T18:45:53;4.00;82.30
9820;DHT22;4949;48.482;9.206;2022-12-19T18:50:58;4.00;82.40
9820;DHT22;4949;48.482;9.206;2022-12-19T18:56:04;4.00;82.80
9820;DHT22;4949;48.482;9.206;2022-12-19T19:01:18;4.00;82.70
9820;DHT22;4949;48.482;9.206;2022-12-19T19:06:26;4.00;82.40
9820;DHT22;4949;48.482;9.206;2022-12-19T19:11:32;4.00;82.30
9820;DHT22;4949;48.482;9.206;2022-12-19T19:16:36;4.00;82.70
9820;DHT22;4949;48.482;9.206;2022-12-19T19:21:39;4.10;82.60
9820;DHT22;4949;48.482;9.206;2022-12-19T19:26:44;4.10;82.10
9820;DHT22;4949;48.482;9.206;2022-12-19T19:31:49;4.10;82.10
9820;DHT22;4949;48.482;9.206;2022-12-19T19:36:56;4.20;82.20
9820;DHT22;4949;48.482;9.206;2022-12-19T19:41:59;4.10;82.80
9820;DHT22;4949;48.482;9.206;2022-12-19T19:47:00;4.10;83.40
9820;DHT22;4949;48.482;9.206;2022-12-19T19:52:06;4.10;83.20
9820;DHT22;4949;48.482;9.206;2022-12-19T19:57:07;4.00;83.00
9820;DHT22;4949;48.482;9.206;2022-12-19T20:02:10;3.90;83.60
9820;DHT22;4949;48.482;9.206;2022-12-19T20:07:13;3.90;83.40
9820;DHT22;4949;48.482;9.206;2022-12-19T20:12:16;3.90;83.60
9820;DHT22;4949;48.482;9.206;2022-12-19T20:17:20;3.90;83.00
9820;DHT22;4949;48.482;9.206;2022-12-19T20:22:25;3.90;83.30
9820;DHT22;4949;48.482;9.206;2022-12-19T20:27:26;3.80;83.10
9820;DHT22;4949;48.482;9.206;2022-12-19T20:32:29;3.80;83.80
9820;DHT22;4949;48.482;9.206;2022-12-19T20:37:29;3.70;84.20
9820;DHT22;4949;48.482;9.206;2022-12-19T20:42:37;3.60;83.60
9820;DHT22;4949;48.482;9.206;2022-12-19T20:47:38;3.60;83.90
9820;DHT22;4949;48.482;9.206;2022-12-19T20:52:44;3.40;84.60
9820;DHT22;4949;48.482;9.206;2022-12-19T20:57:45;3.40;84.70
9820;DHT22;4949;48.482;9.206;2022-12-19T21:02:46;3.40;84.90
9820;DHT22;4949;48.482;9.206;2022-12-19T21:07:49;3.50;85.30
9820;DHT22;4949;48.482;9.206;2022-12-19T21:12:52;3.50;85.70
9820;DHT22;4949;48.482;9.206;2022-12-19T21:17:53;3.50;84.60
9820;DHT22;4949;48.482;9.206;2022-12-19T21:22:54;3.50;84.50
9820;DHT22;4949;48.482;9.206;2022-12-19T21:27:57;3.40;84.30
9820;DHT22;4949;48.482;9.206;2022-12-19T21:33:00;3.50;84.60
9820;DHT22;4949;48.482;9.206;2022-12-19T21:38:01;3.50;84.70
9820;DHT22;4949;48.482;9.206;2022-12-19T21:43:04;3.50;84.60
9820;DHT22;4949;48.482;9.206;2022-12-19T21:48:05;3.60;84.30
9820;DHT22;4949;48.482;9.206;2022-12-19T21:53:06;3.60;84.80
9820;DHT22;4949;48.482;9.206;2022-12-19T21:58:09;3.60;84.60
9820;DHT22;4949;48.482;9.206;2022-12-19T22:03:09;3.50;84.60
9820;DHT22;4949;48.482;9.206;2022-12-19T22:08:14;3.50;85.00
9820;DHT22;4949;48.482;9.206;2022-12-19T22:13:15;3.50;85.40
9820;DHT22;4949;48.482;9.206;2022-12-19T22:18:16;3.50;85.10
9820;DHT22;4949;48.482;9.206;2022-12-19T22:23:22;3.50;85.20
9820;DHT22;4949;48.482;9.206;2022-12-19T22:28:27;3.50;85.10
9820;DHT22;4949;48.482;9.206;2022-12-19T22:33:33;3.50;85.10
9820;DHT22;4949;48.482;9.206;2022-12-19T22:38:34;3.50;85.10
9820;DHT22;4949;48.482;9.206;2022-12-19T22:43:36;3.60;85.00
9820;DHT22;4949;48.482;9.206;2022-12-19T22:48:38;3.60;85.10
9820;DHT22;4949;48.482;9.206;2022-12-19T22:53:40;3.50;85.00
9820;DHT22;4949;48.482;9.206;2022-12-19T22:58:45;3.50;85.10
9820;DHT22;4949;48.482;9.206;2022-12-19T23:03:51;3.50;85.10
9820;DHT22;4949;48.482;9.206;2022-12-19T23:08:53;3.50;85.20
9820;DHT22;4949;48.482;9.206;2022-12-19T23:13:54;3.60;85.30
9820;DHT22;4949;48.482;9.206;2022-12-19T23:18:55;3.60;85.00
9820;DHT22;4949;48.482;9.206;2022-12-19T23:23:58;3.50;85.20
9820;DHT22;4949;48.482;9.206;2022-12-19T23:29:01;3.60;84.80
9820;DHT22;4949;48.482;9.206;2022-12-19T23:34:04;3.70;85.00
9820;DHT22;4949;48.482;9.206;2022-12-19T23:39:11;3.50;84.80
9820;DHT22;4949;48.482;9.206;2022-12-19T23:44:12;3.50;85.30
9820;DHT22;4949;48.482;9.206;2022-12-19T23:49:13;3.40;84.80
9820;DHT22;4949;48.482;9.206;2022-12-19T23:54:16;3.30;85.20
9820;DHT22;4949;48.482;9.206;2022-12-19T23:59:16;3.40;85.30
